Time;durP1;ratioP1;P1;durP2;ratioP2;P2;SDS_P1;SDS_P2;PMS_P1;PMS_P2;Temp;Humidity;BMP_temperature;BMP_pressure;BME280_temperature;BME280_humidity;BME280_pressure;Samples;Min_cycle;Max_cycle;Signal;HPM_P1;HPM_P2
2022/04/22 00:00:37;;;;;;;8.50;5.35;;;;;;;9.83;100.00;101367.16;4922898;29;20055;-75
2022/04/22 00:03:07;;;;;;;9.40;5.72;;;;;;;9.78;100.00;101371.47;4908586;29;20512;-75
2022/04/22 00:05:36;;;;;;;10.90;5.30;;;;;;;9.75;100.00;101383.72;4955640;28;20169;-75
2022/04/22 00:08:04;;;;;;;9.68;5.68;;;;;;;9.71;100.00;101379.25;4959413;28;20543;-76
2022/04/22 00:10:33;;;;;;;11.60;5.88;;;;;;;9.67;100.00;101377.44;4926196;28;20032;-76
2022/04/22 00:13:02;;;;;;;8.23;6.07;;;;;;;9.63;100.00;101369.50;4920169;29;20040;-76
2022/04/22 00:15:30;;;;;;;10.43;6.07;;;;;;;9.60;100.00;101374.69;4939201;28;20040;-76
2022/04/22 00:17:59;;;;;;;10.48;5.70;;;;;;;9.59;100.00;101370.31;4920041;28;20036;-75
2022/04/22 00:20:27;;;;;;;10.57;6.10;;;;;;;9.57;100.00;101367.66;4965415;28;20050;-75
2022/04/22 00:22:56;;;;;;;13.98;5.93;;;;;;;9.56;100.00;101368.50;4952776;28;20036;-76
2022/04/22 00:25:26;;;;;;;9.20;6.00;;;;;;;9.55;100.00;101374.66;4936658;28;20050;-76
2022/04/22 00:27:55;;;;;;;8.38;5.55;;;;;;;9.54;100.00;101363.22;4928354;28;20039;-76
2022/04/22 00:30:23;;;;;;;12.82;6.28;;;;;;;9.54;100.00;101367.59;4924905;29;20520;-76
2022/04/22 00:32:54;;;;;;;10.23;5.75;;;;;;;9.53;100.00;101357.94;4926990;28;20063;-75
2022/04/22 00:35:22;;;;;;;;;;;;;;;9.55;100.00;101353.59;4942108;28;20401;-76
2022/04/22 00:37:51;;;;;;;7.32;5.32;;;;;;;9.53;100.00;101347.44;4941743;29;20439;-77
2022/04/22 00:40:19;;;;;;;11.75;5.80;;;;;;;9.52;100.00;101350.91;4942431;28;20048;-75
2022/04/22 00:42:48;;;;;;;10.82;4.97;;;;;;;9.52;100.00;101348.28;4907267;29;20182;-76
2022/04/22 00:45:19;;;;;;;7.70;5.95;;;;;;;9.54;100.00;101352.69;4904814;29;20056;-76
2022/04/22 00:47:48;;;;;;;5.80;5.13;;;;;;;9.52;100.00;101346.50;4917239;28;20539;-76
2022/04/22 00:50:17;;;;;;;7.88;5.60;;;;;;;9.49;100.00;101342.94;4928116;29;20052;-77
2022/04/22 00:52:45;;;;;;;12.93;6.07;;;;;;;9.47;100.00;101336.78;4941517;28;20699;-75
2022/04/22 00:55:14;;;;;;;7.13;5.38;;;;;;;9.44;100.00;101339.38;4911809;29;20055;-76
2022/04/22 00:57:43;;;;;;;11.27;6.03;;;;;;;9.40;100.00;101334.94;4948136;28;20031;-75
2022/04/22 01:00:12;;;;;;;10.05;6.38;;;;;;;9.34;100.00;101326.09;4958930;28;20048;-76
2022/04/22 01:02:40;;;;;;;11.68;5.97;;;;;;;9.32;100.00;101332.19;4905158;29;20150;-76
2022/04/22 01:10:43;;;;;;;9.55;5.68;;;;;;;9.19;100.00;101328.47;4930079;29;20144;-76
2022/04/22 01:13:12;;;;;;;8.18;6.00;;;;;;;9.17;100.00;101323.19;4922987;29;20490;-76
2022/04/22 01:15:40;;;;;;;7.95;5.22;;;;;;;9.14;100.00;101324.88;4921228;29;20843;-76
2022/04/22 01:18:10;;;;;;;8.75;5.35;;;;;;;9.06;100.00;101326.50;4931193;29;20059;-76
2022/04/22 01:20:38;;;;;;;10.85;6.68;;;;;;;9.00;100.00;101324.66;4937415;28;20059;-76
2022/04/22 01:23:07;;;;;;;7.70;5.90;;;;;;;8.94;100.00;101314.00;4962060;28;20051;-77
2022/04/22 01:25:35;;;;;;;12.80;6.35;;;;;;;8.92;100.00;101318.34;4926441;29;20532;-76
2022/04/22 01:28:04;;;;;;;10.68;5.47;;;;;;;8.88;100.00;101317.41;4937988;28;20054;-76
2022/04/22 01:30:32;;;;;;;12.85;6.03;;;;;;;8.85;100.00;101312.13;4924726;29;20513;-76
2022/04/22 01:33:01;;;;;;;9.88;6.68;;;;;;;8.82;100.00;101314.69;4933736;28;20393;-77
2022/04/22 01:35:32;;;;;;;12.27;5.95;;;;;;;8.76;100.00;101314.59;4918421;28;20058;-76
2022/04/22 01:38:01;;;;;;;9.60;5.78;;;;;;;8.72;100.00;101307.50;4958118;28;20056;-76
2022/04/22 01:40:29;;;;;;;7.15;5.78;;;;;;;8.66;100.00;101307.38;4939869;29;20056;-76
2022/04/22 01:42:59;;;;;;;9.90;6.07;;;;;;;8.63;100.00;101310.84;4961924;28;20043;-76
2022/04/22 01:45:29;;;;;;;15.48;6.65;;;;;;;8.59;100.00;101299.38;4935931;28;20062;-76
2022/04/22 01:47:58;;;;;;;8.75;5.80;;;;;;;8.57;100.00;101293.22;4925619;29;20047;-75
2022/04/22 01:50:26;;;;;;;8.77;5.80;;;;;;;8.53;100.00;101296.66;4921351;28;20043;-76
2022/04/22 01:52:55;;;;;;;8.43;5.63;;;;;;;8.51;100.00;101298.38;4931315;29;20528;-76
2022/04/22 01:55:23;;;;;;;10.82;5.47;;;;;;;8.48;100.00;101300.03;4959487;28;20039;-76
2022/04/22 01:57:53;;;;;;;6.85;5.03;;;;;;;8.43;100.00;101310.47;4960758;28;20343;-76
2022/04/22 02:00:21;;;;;;;8.07;5.30;;;;;;;8.41;100.00;101309.50;4935407;28;20036;-75
2022/04/22 02:02:50;;;;;;;9.82;5.55;;;;;;;8.39;100.00;101303.34;4937350;28;20170;-77
2022/04/22 02:05:19;;;;;;;9.90;5.57;;;;;;;8.35;100.00;101307.63;4952130;28;20044;-76
2022/04/22 02:07:48;;;;;;;6.35;5.57;;;;;;;8.34;100.00;101305.88;4917105;29;20153;-77
2022/04/22 02:10:16;;;;;;;12.93;5.70;;;;;;;8.31;100.00;101300.56;4945684;28;20040;-76
2022/04/22 02:12:44;;;;;;;7.07;5.60;;;;;;;8.28;100.00;101308.41;4942263;28;20059;-77
2022/04/22 02:15:16;;;;;;;10.82;5.65;;;;;;;8.25;100.00;101307.44;4936763;28;20047;-77
2022/04/22 02:17:45;;;;;;;9.63;6.22;;;;;;;8.21;100.00;101301.25;4951362;28;20085;-75
2022/04/22 02:20:19;;;;;;;13.32;5.82;;;;;;;8.18;100.00;101298.53;4928042;29;20051;-77
2022/04/22 02:22:48;;;;;;;9.45;6.18;;;;;;;8.13;100.00;101303.72;4924493;28;20056;-75
2022/04/22 02:25:16;;;;;;;15.00;6.65;;;;;;;8.11;100.00;101305.44;4945624;28;20075;-76
2022/04/22 02:30:32;;;;;;;12.95;6.32;;;;;;;8.06;100.00;101293.94;4917767;29;20333;-75
2022/04/22 02:33:00;;;;;;;9.13;5.93;;;;;;;8.03;100.00;101288.63;4941918;28;20052;-77
2022/04/22 02:35:29;;;;;;;8.75;5.22;;;;;;;8.03;100.00;101298.25;4884592;29;20047;-77
2022/04/22 02:37:57;;;;;;;10.25;5.65;;;;;;;7.99;100.00;101302.53;4944496;29;20060;-75
2022/04/22 02:45:59;;;;;;;12.02;5.78;;;;;;;7.89;100.00;101290.97;4930633;29;20409;-75
2022/04/22 02:48:28;;;;;;;12.80;5.95;;;;;;;7.89;100.00;101279.59;4903711;29;20061;-75
2022/04/22 02:50:57;;;;;;;12.63;5.60;;;;;;;7.85;100.00;101280.38;4952856;28;20035;-75
2022/04/22 02:53:25;;;;;;;13.32;5.13;;;;;;;7.80;100.00;101280.28;4919856;28;20043;-77
2022/04/22 02:55:54;;;;;;;14.15;6.25;;;;;;;7.78;100.00;101276.72;4944304;28;20520;-75
2022/04/22 02:58:22;;;;;;;6.50;5.05;;;;;;;7.75;100.00;101272.31;4928017;29;20043;-76
2022/04/22 03:00:51;;;;;;;5.72;5.10;;;;;;;7.74;100.00;101274.91;4926942;29;20054;-76
2022/04/22 03:03:19;;;;;;;6.00;4.82;;;;;;;7.73;100.00;101274.03;4921882;29;20413;-76
2022/04/22 03:05:47;;;;;;;6.03;5.40;;;;;;;7.71;100.00;101270.47;4919462;29;20625;-76
2022/04/22 03:08:16;;;;;;;7.80;5.05;;;;;;;7.69;100.00;101266.91;4936454;28;20497;-76
2022/04/22 03:10:44;;;;;;;8.65;5.40;;;;;;;7.67;100.00;101266.00;4911044;29;20051;-76
2022/04/22 03:13:13;;;;;;;7.93;5.20;;;;;;;7.64;100.00;101267.66;4931022;29;20055;-76
2022/04/22 03:15:42;;;;;;;9.73;4.88;;;;;;;7.60;100.00;101264.13;4926451;29;20345;-76
2022/04/22 03:18:10;;;;;;;7.72;5.00;;;;;;;7.59;100.00;101270.19;4920299;28;20048;-76
2022/04/22 03:20:39;;;;;;;8.40;4.97;;;;;;;7.57;100.00;101256.16;4948831;28;20051;-76
2022/04/22 03:23:07;;;;;;;7.45;5.03;;;;;;;7.54;100.00;101258.72;4938115;28;20070;-76
2022/04/22 03:25:35;;;;;;;8.27;5.03;;;;;;;7.48;100.00;101251.59;4955725;28;20261;-76
2022/04/22 03:28:05;;;;;;;5.55;4.75;;;;;;;7.48;100.00;101258.59;4957038;28;20512;-77
2022/04/22 03:30:34;;;;;;;8.50;5.22;;;;;;;7.46;100.00;101258.53;4937460;28;20536;-76
2022/04/22 03:33:04;;;;;;;6.95;4.97;;;;;;;7.42;100.00;101252.34;4908490;28;20039;-76
2022/04/22 03:35:32;;;;;;;12.90;5.65;;;;;;;7.38;100.00;101245.25;4917011;29;20165;-76
2022/04/22 03:38:01;;;;;;;12.68;5.45;;;;;;;7.36;100.00;101252.22;4943340;28;20051;-76
2022/04/22 03:40:29;;;;;;;7.45;5.38;;;;;;;7.34;100.00;101251.28;4885078;29;20050;-76
2022/04/22 03:42:58;;;;;;;8.57;5.35;;;;;;;7.30;100.00;101257.31;4926126;29;20413;-77
2022/04/22 03:45:26;;;;;;;8.77;5.40;;;;;;;7.27;100.00;101249.38;4925071;29;20054;-76
2022/04/22 03:47:58;;;;;;;9.40;4.80;;;;;;;7.26;100.00;101250.25;4918831;28;20052;-76
2022/04/22 03:50:26;;;;;;;7.38;5.35;;;;;;;7.26;100.00;101255.47;4921417;29;20039;-76
2022/04/22 03:52:55;;;;;;;9.13;4.80;;;;;;;7.25;100.00;101252.81;4957523;28;20508;-76
2022/04/22 03:55:23;;;;;;;7.82;5.13;;;;;;;7.23;100.00;101256.28;4903661;29;20047;-76
2022/04/22 04:00:47;;;;;;;9.45;5.10;;;;;;;7.20;100.00;101250.06;4923732;29;20249;-76
2022/04/22 04:03:18;;;;;;;9.85;5.22;;;;;;;7.19;100.00;101259.69;4943832;28;20520;-75
2022/04/22 04:05:51;;;;;;;6.85;5.07;;;;;;;7.18;100.00;101251.78;4912297;29;20170;-76
2022/04/22 04:08:21;;;;;;;8.77;4.82;;;;;;;7.19;100.00;101254.44;4917432;29;20058;-76
2022/04/22 04:16:41;;;;;;;5.15;4.30;;;;;;;7.14;100.00;101260.41;4914822;29;20268;-76
2022/04/22 04:24:43;;;;;;;6.00;3.90;;;;;;;7.07;100.00;101251.53;4903387;29;20040;-76
2022/04/22 04:27:11;;;;;;;6.35;4.15;;;;;;;7.07;100.00;101254.16;4940458;28;20051;-76
2022/04/22 04:29:45;;;;;;;7.70;4.38;;;;;;;7.07;100.00;101250.63;4910163;29;20177;-76
2022/04/22 04:32:13;;;;;;;10.23;4.15;;;;;;;7.07;100.00;101251.53;4938943;28;20406;-76
2022/04/22 04:34:44;;;;;;;5.03;3.80;;;;;;;7.08;100.00;101255.91;4940930;29;20047;-76
2022/04/22 04:37:13;;;;;;;6.57;3.45;;;;;;;7.10;100.00;101255.97;4916579;28;20066;-76
2022/04/22 04:39:41;;;;;;;6.95;3.50;;;;;;;7.14;100.00;101258.69;4947317;28;20158;-75
2022/04/22 04:42:10;;;;;;;8.05;3.60;;;;;;;7.16;100.00;101250.84;4918887;28;20409;-77
2022/04/22 04:44:38;;;;;;;3.90;3.50;;;;;;;7.16;100.00;101248.22;4941302;28;20059;-75
2022/04/22 04:47:07;;;;;;;8.10;3.47;;;;;;;7.21;100.00;101250.13;4963130;28;20048;-82
2022/04/22 04:49:36;;;;;;;6.53;3.90;;;;;;;7.29;100.00;101250.28;4929514;29;20051;-81
2022/04/22 04:52:06;;;;;;;4.90;3.70;;;;;;;7.34;100.00;101240.81;4940219;28;20059;-81
2022/04/22 04:54:35;;;;;;;4.95;3.83;;;;;;;7.36;100.00;101246.97;4939384;28;20268;-80
2022/04/22 04:57:04;;;;;;;4.75;3.47;;;;;;;7.37;100.00;101251.38;4911292;29;20056;-82
2022/04/22 04:59:33;;;;;;;6.25;3.75;;;;;;;7.37;100.00;101253.09;4940542;29;20553;-83
2022/04/22 05:02:02;;;;;;;9.63;3.58;;;;;;;7.35;100.00;101260.94;4946975;28;20039;-82
2022/04/22 05:04:31;;;;;;;6.60;3.30;;;;;;;7.34;100.00;101251.28;4960988;28;20568;-81
2022/04/22 05:07:00;;;;;;;7.60;3.47;;;;;;;7.33;100.00;101259.13;4927932;28;20050;-83
2022/04/22 05:09:28;;;;;;;3.75;2.85;;;;;;;7.33;100.00;101248.63;4908368;29;20070;-83
2022/04/22 05:11:57;;;;;;;3.75;3.20;;;;;;;7.33;100.00;101257.38;4917494;29;20347;-82
2022/04/22 05:14:26;;;;;;;4.13;2.90;;;;;;;7.33;100.00;101252.13;4930343;29;20047;-83
2022/04/22 05:16:54;;;;;;;3.53;3.03;;;;;;;7.34;100.00;101246.06;4979189;28;20039;-82
2022/04/22 05:19:23;;;;;;;7.88;3.03;;;;;;;7.36;100.00;101249.59;4962613;28;20058;-82
2022/04/22 05:21:52;;;;;;;5.25;3.35;;;;;;;7.37;100.00;101251.38;4942782;28;20051;-82
2022/04/22 05:24:20;;;;;;;6.38;3.25;;;;;;;7.39;100.00;101240.91;4927607;29;20059;-82
2022/04/22 05:26:51;;;;;;;3.92;2.97;;;;;;;7.41;100.00;101242.72;4927595;28;20050;-82
2022/04/22 05:34:54;;;;;;;4.47;3.13;;;;;;;7.56;100.00;101244.81;4932720;29;20048;-83
2022/04/22 05:37:23;;;;;;;8.55;3.78;;;;;;;7.60;100.00;101246.63;4939625;28;20124;-82
2022/04/22 05:39:51;;;;;;;3.30;2.97;;;;;;;7.66;100.00;101240.63;4967149;28;20048;-82
2022/04/22 05:42:20;;;;;;;6.45;3.22;;;;;;;7.72;100.00;101246.00;4942631;28;20525;-82
2022/04/22 05:44:48;;;;;;;8.52;3.22;;;;;;;7.79;100.00;101253.16;4949667;28;20039;-82
2022/04/22 05:47:17;;;;;;;6.82;2.72;;;;;;;7.85;100.00;101251.53;4934998;29;20039;-82
2022/04/22 05:49:45;;;;;;;7.50;2.65;;;;;;;7.90;100.00;101249.84;4918895;29;20252;-84
2022/04/22 05:52:14;;;;;;;4.88;3.03;;;;;;;7.98;100.00;101258.78;4914391;29;20038;-82
2022/04/22 05:54:47;;;;;;;4.03;2.88;;;;;;;8.07;100.00;101258.06;4957667;28;20046;-83
2022/04/22 05:57:16;;;;;;;2.97;2.38;;;;;;;8.37;100.00;101248.19;4900922;28;20067;-81
2022/04/22 05:59:44;;;;;;;4.80;2.75;;;;;;;9.00;100.00;101247.50;4921565;29;20181;-82
2022/04/22 06:02:13;;;;;;;5.43;2.70;;;;;;;9.65;100.00;101252.00;4956194;28;20059;-81
2022/04/22 06:04:42;;;;;;;5.07;3.55;;;;;;;10.07;100.00;101243.72;4942771;28;20048;-79
2022/04/22 06:07:11;;;;;;;5.80;2.75;;;;;;;10.31;100.00;101239.66;4979820;28;20039;-82
2022/04/22 06:12:37;;;;;;;4.82;2.55;;;;;;;10.27;100.00;101235.19;4941376;28;20277;-83
2022/04/22 06:15:11;;;;;;;7.30;2.67;;;;;;;10.19;100.00;101223.66;4929311;29;20048;-83
2022/04/22 06:17:52;;;;;;;3.28;2.60;;;;;;;10.13;100.00;101228.03;4937398;28;20043;-83
2022/04/22 06:20:30;;;;;;;4.15;2.83;;;;;;;10.11;100.00;101232.38;4939904;28;20324;-81
2022/04/22 06:23:00;;;;;;;7.38;2.72;;;;;;;10.04;100.00;101233.19;4919151;29;20043;-81
2022/04/22 06:25:29;;;;;;;10.13;3.00;;;;;;;10.01;99.94;101227.00;4951528;28;20456;-81
2022/04/22 06:27:58;;;;;;;4.07;2.50;;;;;;;10.12;99.75;101236.78;4945022;28;20046;-81
2022/04/22 06:30:27;;;;;;;5.57;2.90;;;;;;;10.22;99.72;101223.72;4945238;29;20659;-82
2022/04/22 06:32:56;;;;;;;7.82;2.95;;;;;;;10.41;99.57;101225.69;4966482;28;20405;-82
2022/04/22 06:35:26;;;;;;;7.05;2.80;;;;;;;10.61;99.04;101225.88;4932940;28;20048;-82
2022/04/22 06:37:55;;;;;;;5.37;2.50;;;;;;;10.67;97.97;101223.31;4961219;28;20398;-82
2022/04/22 06:46:03;;;;;;;8.13;2.83;;;;;;;10.58;95.10;101231.13;4906679;29;20533;-82
2022/04/22 06:48:33;;;;;;;5.63;2.50;;;;;;;10.57;94.96;101226.75;4918492;29;20507;-82
2022/04/22 06:51:17;;;;;;;6.88;2.50;;;;;;;10.68;95.41;101224.19;4906213;29;20044;-82
2022/04/22 06:53:51;;;;;;;4.18;2.92;;;;;;;10.83;94.93;101232.25;4929863;29;20518;-81
2022/04/22 06:56:27;;;;;;;6.38;2.67;;;;;;;11.17;95.29;101215.75;4914147;29;20398;-81
2022/04/22 06:58:56;;;;;;;3.78;2.45;;;;;;;11.27;92.02;101215.84;4925025;29;20040;-82
2022/04/22 07:01:25;;;;;;;4.78;2.92;;;;;;;11.42;92.86;101217.69;4885916;29;20423;-82
2022/04/22 07:04:12;;;;;;;4.88;2.40;;;;;;;11.45;91.18;101214.19;4932508;28;20526;-81
2022/04/22 07:06:42;;;;;;;9.18;2.92;;;;;;;11.46;92.35;101215.97;4922589;29;20597;-81
2022/04/22 07:09:11;;;;;;;6.88;2.60;;;;;;;11.52;90.41;101211.59;4946011;28;20498;-82
2022/04/22 07:11:41;;;;;;;3.22;2.45;;;;;;;11.62;90.65;101214.28;4934021;28;20624;-82
2022/04/22 07:14:11;;;;;;;11.23;2.60;;;;;;;11.65;90.81;101207.25;4913436;29;20047;-82
2022/04/22 07:16:44;;;;;;;4.72;2.40;;;;;;;11.75;91.00;101205.53;4894613;29;20044;-82
2022/04/22 07:19:13;;;;;;;5.00;2.40;;;;;;;11.87;90.87;101195.03;4906726;29;20035;-83
2022/04/22 07:21:42;;;;;;;3.25;2.50;;;;;;;11.97;90.18;101195.09;4938815;28;20253;-82
2022/04/22 07:24:10;;;;;;;3.35;2.45;;;;;;;12.09;90.06;101193.34;4916202;29;20075;-84
2022/04/22 07:26:43;;;;;;;6.70;2.72;;;;;;;12.18;89.49;101191.63;4902969;29;20063;-82
2022/04/22 07:29:13;;;;;;;5.53;2.25;;;;;;;12.22;88.48;101188.97;4929493;29;20028;-82
2022/04/22 07:31:42;;;;;;;7.78;2.75;;;;;;;12.24;88.32;101202.19;4915460;28;20128;-82
2022/04/22 07:34:10;;;;;;;4.13;2.95;;;;;;;12.19;87.43;101193.38;4939940;28;20051;-83
2022/04/22 07:36:39;;;;;;;3.15;2.38;;;;;;;12.19;87.76;101204.84;4936394;28;20592;-81
2022/04/22 07:39:08;;;;;;;5.20;2.42;;;;;;;12.24;87.76;101196.91;4912948;29;20052;-80
2022/04/22 07:41:38;;;;;;;8.27;2.80;;;;;;;12.25;87.47;101194.28;4935136;28;20476;-82
2022/04/22 07:46:59;;;;;;;7.57;3.10;;;;;;;12.40;86.76;101193.41;4892201;29;20059;-81
2022/04/22 07:49:29;;;;;;;3.72;2.60;;;;;;;12.41;86.33;101191.66;4936316;28;20055;-82
2022/04/22 07:51:58;;;;;;;3.88;2.70;;;;;;;12.40;86.35;101193.41;4938623;28;20052;-82
2022/04/22 07:54:27;;;;;;;4.97;2.53;;;;;;;12.41;85.40;101183.72;4924176;29;20071;-82
2022/04/22 07:56:56;;;;;;;3.55;2.80;;;;;;;12.43;85.49;101195.16;4929981;28;20679;-80
2022/04/22 07:59:28;;;;;;;5.30;2.53;;;;;;;12.42;85.36;101181.09;4943224;28;20314;-81
2022/04/22 08:01:59;;;;;;;4.45;2.60;;;;;;;12.47;85.73;101179.31;4937589;28;20517;-80
2022/04/22 08:04:28;;;;;;;11.15;2.65;;;;;;;12.46;84.86;101177.56;4936778;28;20260;-80
2022/04/22 08:06:56;;;;;;;6.95;2.38;;;;;;;12.43;84.45;101176.66;4920205;28;20490;-82
2022/04/22 08:09:46;;;;;;;3.08;2.70;;;;;;;12.46;85.02;101164.34;4911076;29;20048;-81
2022/04/22 08:12:15;;;;;;;6.13;3.08;;;;;;;12.55;84.65;101171.41;4938571;28;20482;-80
2022/04/22 08:14:44;;;;;;;2.60;2.38;;;;;;;12.64;85.28;101167.88;4920441;29;20044;-82
2022/04/22 08:17:12;;;;;;;5.53;2.78;;;;;;;12.78;85.10;101173.13;4913684;29;20056;-81
2022/04/22 08:19:43;;;;;;;7.68;3.45;;;;;;;12.85;84.01;101177.53;4913343;28;20041;-80
2022/04/22 08:22:12;;;;;;;3.92;2.35;;;;;;;12.95;83.54;101173.13;4909767;29;20056;-80
2022/04/22 08:24:41;;;;;;;6.60;2.38;;;;;;;13.06;83.87;101163.41;4912542;29;20271;-80
2022/04/22 08:27:10;;;;;;;2.90;2.30;;;;;;;13.13;82.82;101169.56;4911103;29;20060;-81
2022/04/22 08:29:39;;;;;;;4.65;2.38;;;;;;;13.18;81.95;101166.03;4934218;28;21116;-80
2022/04/22 08:32:07;;;;;;;3.70;2.38;;;;;;;13.26;82.26;101166.00;4917409;29;20060;-80
2022/04/22 08:34:36;;;;;;;4.72;2.60;;;;;;;13.35;81.87;101155.44;4931212;28;20059;-80
2022/04/22 08:37:04;;;;;;;3.45;2.80;;;;;;;13.46;81.74;101152.75;4927083;29;20183;-80
2022/04/22 08:39:33;;;;;;;4.50;2.65;;;;;;;13.57;80.82;101163.28;4935384;28;20043;-80
2022/04/22 08:42:05;;;;;;;4.93;2.60;;;;;;;13.68;80.39;101152.66;4909192;29;20043;-79
2022/04/22 08:44:54;;;;;;;4.32;2.47;;;;;;;13.74;80.03;101152.59;4894743;29;20058;-80
2022/04/22 08:50:13;;;;;;;3.17;2.70;;;;;;;14.04;78.66;101143.59;4929462;28;20032;-80
2022/04/22 08:52:48;;;;;;;3.28;2.00;;;;;;;14.20;78.30;101136.47;4921209;28;20048;-80
2022/04/22 08:55:19;;;;;;;3.33;2.60;;;;;;;14.30;77.16;101137.25;4926942;29;20044;-80
2022/04/22 08:57:48;;;;;;;3.40;2.17;;;;;;;14.38;76.56;101138.94;4893187;29;20043;-80
2022/04/22 09:00:23;;;;;;;4.57;2.58;;;;;;;14.45;76.00;101131.84;4927129;28;20036;-80
2022/04/22 09:02:54;;;;;;;3.35;2.00;;;;;;;14.56;75.47;101135.28;4926981;29;20059;-80
2022/04/22 09:05:26;;;;;;;5.63;2.88;;;;;;;14.60;75.55;101120.25;4901252;29;20048;-82
2022/04/22 09:07:55;;;;;;;4.95;2.40;;;;;;;14.62;75.77;101129.06;4912892;29;20044;-81
2022/04/22 09:10:25;;;;;;;4.10;2.67;;;;;;;14.59;75.19;101119.38;4946275;28;20621;-80
2022/04/22 09:12:56;;;;;;;3.75;2.40;;;;;;;14.62;74.49;101115.81;4928714;29;20327;-80
2022/04/22 09:15:31;;;;;;;8.15;2.83;;;;;;;14.62;73.83;101102.56;4933552;28;20547;-82
2022/04/22 09:18:23;;;;;;;8.82;2.25;;;;;;;14.61;72.92;101106.06;4886885;29;21034;-81
2022/04/22 09:20:56;;;;;;;7.43;2.38;;;;;;;14.64;73.55;101106.06;4931564;29;20524;-81
2022/04/22 09:23:35;;;;;;;6.40;2.30;;;;;;;14.75;73.58;101096.22;4930167;29;20691;-81
2022/04/22 09:26:05;;;;;;;4.97;2.45;;;;;;;14.81;74.29;101097.94;4915305;29;20074;-76
2022/04/22 09:28:35;;;;;;;3.85;2.80;;;;;;;14.81;74.28;101098.81;4937867;28;20040;-78
2022/04/22 09:31:04;;;;;;;3.78;2.67;;;;;;;14.82;74.74;101084.66;4915476;29;20421;-77
2022/04/22 09:33:42;;;;;;;3.25;2.75;;;;;;;14.89;74.09;101096.06;4950120;28;20493;-78
2022/04/22 09:45:07;;;;;;;6.60;2.80;;;;;;;15.14;72.57;101074.56;4929893;28;20072;-79
2022/04/22 09:47:36;;;;;;;;;;;;;;;15.22;72.46;101072.72;4905117;29;20418;-78
2022/04/22 09:50:11;;;;;;;6.38;3.20;;;;;;;15.30;73.11;101065.53;4889518;29;19934;-77
2022/04/22 09:52:46;;;;;;;6.38;2.35;;;;;;;15.32;71.74;101055.75;4927997;29;20056;-78
2022/04/22 09:55:18;;;;;;;4.57;2.67;;;;;;;15.32;72.79;101063.72;4928785;28;20063;-76
2022/04/22 09:57:55;;;;;;;4.63;2.72;;;;;;;15.36;71.60;101061.91;4940050;28;20402;-77
2022/04/22 10:00:29;;;;;;;7.22;2.58;;;;;;;15.39;71.19;101064.53;4924130;29;20345;-77
2022/04/22 10:02:57;;;;;;;4.07;2.60;;;;;;;15.39;71.24;101067.19;4896606;29;20040;-77
2022/04/22 10:05:31;;;;;;;5.10;2.83;;;;;;;15.39;71.33;101067.19;4908432;28;20210;-77
2022/04/22 10:08:03;;;;;;;5.25;2.75;;;;;;;15.46;71.90;101055.56;4923230;29;20406;-77
2022/04/22 10:10:35;;;;;;;3.17;2.55;;;;;;;15.50;71.34;101067.94;4933973;28;20032;-76
2022/04/22 10:13:05;;;;;;;6.05;3.20;;;;;;;15.54;69.58;101061.66;4927930;28;20044;-78
2022/04/22 10:15:37;;;;;;;6.70;2.30;;;;;;;15.58;69.94;101059.84;4934553;28;20056;-77
2022/04/22 10:18:10;;;;;;;4.47;2.40;;;;;;;15.68;70.21;101053.50;4891622;29;20066;-76
2022/04/22 10:20:39;;;;;;;5.35;2.65;;;;;;;15.74;69.28;101055.22;4911476;28;20044;-76
2022/04/22 10:23:09;;;;;;;4.82;2.75;;;;;;;15.77;68.39;101060.50;4925078;29;20041;-77
2022/04/22 10:25:38;;;;;;;7.82;2.90;;;;;;;15.76;67.92;101058.72;4936841;28;20417;-77
2022/04/22 10:28:10;;;;;;;6.32;2.67;;;;;;;15.81;68.43;101046.25;4926544;28;20032;-77
2022/04/22 10:30:41;;;;;;;6.22;2.60;;;;;;;15.90;67.59;101040.81;4923414;28;20052;-77
2022/04/22 10:33:10;;;;;;;5.25;2.53;;;;;;;15.91;67.11;101037.22;4926217;28;20051;-77
2022/04/22 10:35:45;;;;;;;4.78;2.78;;;;;;;15.98;66.39;101049.53;4896507;28;20077;-77
2022/04/22 10:38:33;;;;;;;6.78;2.97;;;;;;;15.98;65.97;101038.88;4939404;28;20277;-77
2022/04/22 10:41:16;;;;;;;4.32;2.72;;;;;;;15.90;64.53;101031.97;4897887;29;20056;-78
2022/04/22 10:49:43;;;;;;;4.73;3.20;;;;;;;16.01;66.45;101037.06;4912482;28;20066;-78
2022/04/22 10:52:19;;;;;;;5.40;2.80;;;;;;;16.09;66.43;101024.56;4895053;29;20044;-78
2022/04/22 10:54:58;;;;;;;3.10;2.80;;;;;;;16.20;66.20;101033.22;4928905;28;20052;-78
2022/04/22 10:57:32;;;;;;;4.45;2.70;;;;;;;16.31;65.48;101028.59;4892422;29;20473;-77
2022/04/22 11:00:27;;;;;;;4.82;3.45;;;;;;;16.31;63.91;101025.03;4935977;28;20052;-78
2022/04/22 11:03:02;;;;;;;3.45;3.03;;;;;;;16.38;66.39;101024.91;4937519;29;20048;-79
2022/04/22 11:05:30;;;;;;;4.28;3.28;;;;;;;16.47;66.00;101029.19;4914056;29;21045;-80
2022/04/22 11:08:00;;;;;;;5.03;3.47;;;;;;;16.50;64.94;101020.28;4899228;29;20060;-80
2022/04/22 11:10:44;;;;;;;7.13;3.33;;;;;;;16.50;65.01;101020.28;4912057;29;20056;-78
2022/04/22 11:13:43;;;;;;;4.93;3.30;;;;;;;16.53;65.09;101009.59;4921661;29;20160;-79
2022/04/22 11:16:30;;;;;;;6.97;3.13;;;;;;;16.58;65.09;101010.38;4900722;29;20046;-79
2022/04/22 11:19:26;;;;;;;7.15;3.28;;;;;;;16.73;65.75;101012.75;4886532;29;20052;-79
2022/04/22 11:21:58;;;;;;;6.35;2.90;;;;;;;16.87;63.92;101000.97;4900368;29;20050;-77
2022/04/22 11:24:27;;;;;;;4.05;3.30;;;;;;;16.88;63.83;100997.38;4917743;29;20058;-77
2022/04/22 11:27:11;;;;;;;8.23;3.75;;;;;;;16.95;63.94;100996.38;4920471;29;20778;-78
2022/04/22 11:29:43;;;;;;;6.65;2.90;;;;;;;17.03;63.69;100993.53;4908119;29;20048;-79
2022/04/22 11:32:21;;;;;;;4.68;3.22;;;;;;;17.04;63.60;100989.97;4914523;29;20070;-82
2022/04/22 11:35:15;;;;;;;6.57;3.20;;;;;;;17.21;62.55;100986.94;4901014;29;20259;-82
2022/04/22 11:37:44;;;;;;;6.75;3.80;;;;;;;17.22;62.54;100994.00;4920044;28;20067;-81
2022/04/22 11:40:18;;;;;;;6.13;3.25;;;;;;;17.22;62.75;100999.34;4912589;28;20528;-82
2022/04/22 11:42:49;;;;;;;5.75;3.33;;;;;;;17.23;62.58;100998.44;4934153;28;20341;-81
2022/04/22 11:45:18;;;;;;;6.18;3.45;;;;;;;17.11;62.36;101003.13;4930674;28;20430;-81
2022/04/22 11:47:49;;;;;;;4.63;3.33;;;;;;;17.06;62.49;100997.00;4935733;28;20446;-83
2022/04/22 11:50:20;;;;;;;3.50;3.10;;;;;;;17.12;62.17;100983.56;4918859;28;20486;-79
2022/04/22 11:52:58;;;;;;;4.75;3.60;;;;;;;17.21;62.47;100992.28;4911934;28;20325;-81
2022/04/22 11:55:27;;;;;;;5.35;3.70;;;;;;;17.30;63.33;100986.75;4913760;28;20040;-80
2022/04/22 11:57:55;;;;;;;5.25;3.47;;;;;;;17.31;61.96;100985.81;4928385;28;20056;-79
2022/04/22 12:06:01;;;;;;;7.03;3.67;;;;;;;17.49;61.87;100987.22;4914309;29;20087;-80
2022/04/22 12:08:30;;;;;;;4.80;3.20;;;;;;;17.57;62.23;100984.34;4916049;28;20058;-80
2022/04/22 12:10:58;;;;;;;6.70;3.40;;;;;;;17.70;61.52;100983.16;4918374;28;20063;-82
2022/04/22 12:13:26;;;;;;;6.15;3.75;;;;;;;17.68;61.33;100972.53;4915089;29;20516;-82
2022/04/22 12:15:55;;;;;;;4.85;3.30;;;;;;;17.73;62.99;100969.72;4897188;29;20048;-80
2022/04/22 12:18:33;;;;;;;5.43;3.15;;;;;;;17.78;61.93;100965.16;4927314;28;20051;-81
2022/04/22 12:21:04;;;;;;;9.07;3.38;;;;;;;17.82;61.88;100956.19;4932088;28;20063;-81
2022/04/22 12:23:37;;;;;;;;;;;;;;;17.83;60.16;100960.59;4887765;29;20055;-80
2022/04/22 12:26:14;;;;;;;5.72;3.63;;;;;;;17.86;61.62;100957.00;4930210;28;19934;-81
2022/04/22 12:29:02;;;;;;;8.15;3.83;;;;;;;17.86;60.70;100955.25;4919223;29;20293;-81
2022/04/22 12:31:31;;;;;;;7.38;4.10;;;;;;;17.84;60.83;100957.03;4902131;29;20493;-82
2022/04/22 12:34:06;;;;;;;9.45;3.83;;;;;;;17.84;61.71;100961.47;4929474;28;20391;-80
2022/04/22 12:36:42;;;;;;;4.78;3.60;;;;;;;17.73;61.38;100954.63;4944496;28;20049;-82
2022/04/22 12:39:49;;;;;;;7.65;3.85;;;;;;;17.72;60.79;100947.53;4921842;28;20044;-80
2022/04/22 12:42:17;;;;;;;8.68;3.90;;;;;;;17.77;62.79;100950.13;4905655;29;20039;-81
2022/04/22 12:53:38;;;;;;;5.18;3.90;;;;;;;18.13;62.30;100952.78;4891499;29;20517;-81
2022/04/22 12:56:10;;;;;;;5.53;4.28;;;;;;;18.04;61.25;100945.00;4927670;28;20044;-81
2022/04/22 12:58:50;;;;;;;6.45;4.20;;;;;;;17.96;60.64;100955.88;4912990;29;20036;-81